Amity, Missouri
Current Conditions -  °F | °C
As of 3:53 PM on Monday 24 Nov 2014 (Local Time) from KSTJ Reporting Station
Broken Clouds Broken Clouds  
Wind Chill: -1°   Ceiling: 4200
Heat Index:   Visibility: 10mi
Dew Point: -5°   Wind: 10mph
Humidity: 57%   Direction: 310°NW
Pressure: 29.88"   Gusts: NA
Location:  39.87°N, 94.44°W
Report Text: KSTJ 242153Z AUTO 31009KT 10SM BKN042 03/M05 A2988 RMK AO2 SLP123 T00281050
Loading
Personal Weather Stations






























Interactive Weather Map New forecast layout! Learn more

10-Day Weather Forecast

Advertisements
Track Severe Weather on mobile